sensor_id;sensor_type;location;lat;lon;timestamp;pressure;altitude;pressure_sealevel;temperature;humidity
52651;BME280;38537;47.226;39.702;2023-03-14T00:02:18;101487.88;;;5.86;43.60
52651;BME280;38537;47.226;39.702;2023-03-14T00:04:45;101488.56;;;5.76;43.54
52651;BME280;38537;47.226;39.702;2023-03-14T00:07:13;101442.66;;;5.52;43.73
52651;BME280;38537;47.226;39.702;2023-03-14T00:09:41;101475.78;;;5.59;43.60
52651;BME280;38537;47.226;39.702;2023-03-14T00:12:08;101464.72;;;5.47;44.00
52651;BME280;38537;47.226;39.702;2023-03-14T00:14:36;101480.59;;;5.51;43.69
52651;BME280;38537;47.226;39.702;2023-03-14T00:17:03;101478.44;;;5.54;44.26
52651;BME280;38537;47.226;39.702;2023-03-14T00:19:30;101458.22;;;5.41;44.29
52651;BME280;38537;47.226;39.702;2023-03-14T00:21:58;101463.16;;;5.51;44.32
52651;BME280;38537;47.226;39.702;2023-03-14T00:24:25;101453.13;;;5.33;44.44
52651;BME280;38537;47.226;39.702;2023-03-14T00:26:52;101467.44;;;5.30;44.28
52651;BME280;38537;47.226;39.702;2023-03-14T00:29:22;101454.34;;;5.26;44.41
52651;BME280;38537;47.226;39.702;2023-03-14T00:31:49;101462.13;;;5.40;44.54
52651;BME280;38537;47.226;39.702;2023-03-14T00:34:17;101465.56;;;5.19;44.53
52651;BME280;38537;47.226;39.702;2023-03-14T00:36:45;101460.97;;;5.25;44.51
52651;BME280;38537;47.226;39.702;2023-03-14T00:39:12;101454.22;;;5.21;44.79
52651;BME280;38537;47.226;39.702;2023-03-14T00:41:39;101481.41;;;5.35;44.46
52651;BME280;38537;47.226;39.702;2023-03-14T00:44:07;101464.31;;;5.27;44.64
52651;BME280;38537;47.226;39.702;2023-03-14T00:46:34;101453.50;;;5.25;44.72
52651;BME280;38537;47.226;39.702;2023-03-14T00:49:01;101473.41;;;5.67;45.01
52651;BME280;38537;47.226;39.702;2023-03-14T00:51:29;101470.88;;;5.66;44.46
52651;BME280;38537;47.226;39.702;2023-03-14T00:53:56;101475.78;;;5.59;44.43
52651;BME280;38537;47.226;39.702;2023-03-14T00:56:23;101480.41;;;5.41;44.65
52651;BME280;38537;47.226;39.702;2023-03-14T00:58:56;101475.88;;;5.35;44.64
52651;BME280;38537;47.226;39.702;2023-03-14T01:01:24;101482.84;;;5.38;44.66
52651;BME280;38537;47.226;39.702;2023-03-14T01:03:52;101485.94;;;5.41;44.39
52651;BME280;38537;47.226;39.702;2023-03-14T01:06:25;101468.09;;;5.49;45.12
52651;BME280;38537;47.226;39.702;2023-03-14T01:08:53;101497.22;;;5.80;44.29
52651;BME280;38537;47.226;39.702;2023-03-14T01:11:26;101493.03;;;5.77;44.00
52651;BME280;38537;47.226;39.702;2023-03-14T01:13:54;101459.97;;;5.59;44.02
52651;BME280;38537;47.226;39.702;2023-03-14T01:16:23;101492.88;;;5.84;43.97
52651;BME280;38537;47.226;39.702;2023-03-14T01:18:51;101461.66;;;5.60;44.14
52651;BME280;38537;47.226;39.702;2023-03-14T01:21:23;101507.63;;;5.73;44.21
52651;BME280;38537;47.226;39.702;2023-03-14T01:23:53;101495.88;;;5.82;44.54
52651;BME280;38537;47.226;39.702;2023-03-14T01:26:23;101495.97;;;5.88;44.39
52651;BME280;38537;47.226;39.702;2023-03-14T01:28:53;101508.72;;;6.00;43.96
52651;BME280;38537;47.226;39.702;2023-03-14T01:31:22;101490.84;;;5.79;43.91
52651;BME280;38537;47.226;39.702;2023-03-14T01:33:50;101504.75;;;5.96;44.13
52651;BME280;38537;47.226;39.702;2023-03-14T01:36:18;101496.34;;;6.08;44.03
52651;BME280;38537;47.226;39.702;2023-03-14T01:38:45;101483.41;;;6.13;44.26
52651;BME280;38537;47.226;39.702;2023-03-14T01:41:18;101512.59;;;6.66;43.87
52651;BME280;38537;47.226;39.702;2023-03-14T01:43:47;101481.03;;;6.56;43.76
52651;BME280;38537;47.226;39.702;2023-03-14T01:46:25;101502.91;;;6.35;43.26
52651;BME280;38537;47.226;39.702;2023-03-14T01:49:07;101514.19;;;6.29;43.20
52651;BME280;38537;47.226;39.702;2023-03-14T01:57:08;101527.78;;;5.97;43.46
52651;BME280;38537;47.226;39.702;2023-03-14T01:59:40;101520.97;;;5.76;44.34
52651;BME280;38537;47.226;39.702;2023-03-14T02:02:11;101535.81;;;5.70;44.64
52651;BME280;38537;47.226;39.702;2023-03-14T02:04:40;101527.09;;;5.49;44.28
52651;BME280;38537;47.226;39.702;2023-03-14T02:10:07;101504.88;;;5.33;44.93
52651;BME280;38537;47.226;39.702;2023-03-14T02:12:36;101524.88;;;5.63;45.15
52651;BME280;38537;47.226;39.702;2023-03-14T02:15:11;101510.69;;;5.60;44.69
52651;BME280;38537;47.226;39.702;2023-03-14T02:18:08;101513.34;;;5.55;44.81
52651;BME280;38537;47.226;39.702;2023-03-14T02:21:01;101530.47;;;5.51;45.54
52651;BME280;38537;47.226;39.702;2023-03-14T02:26:34;101535.13;;;5.63;44.73
52651;BME280;38537;47.226;39.702;2023-03-14T02:29:04;101546.91;;;5.70;44.61
52651;BME280;38537;47.226;39.702;2023-03-14T02:31:32;101507.28;;;5.41;44.88
52651;BME280;38537;47.226;39.702;2023-03-14T02:34:00;101525.22;;;5.38;44.83
52651;BME280;38537;47.226;39.702;2023-03-14T02:36:29;101545.28;;;5.45;44.84
52651;BME280;38537;47.226;39.702;2023-03-14T02:39:21;101502.66;;;5.18;45.58
52651;BME280;38537;47.226;39.702;2023-03-14T02:41:51;101542.53;;;5.45;46.06
52651;BME280;38537;47.226;39.702;2023-03-14T02:44:18;101541.00;;;5.38;45.81
52651;BME280;38537;47.226;39.702;2023-03-14T02:46:48;101536.63;;;5.42;45.47
52651;BME280;38537;47.226;39.702;2023-03-14T02:49:16;101536.81;;;5.24;44.93
52651;BME280;38537;47.226;39.702;2023-03-14T02:51:44;101528.78;;;5.10;45.74
52651;BME280;38537;47.226;39.702;2023-03-14T02:54:12;101541.41;;;5.18;45.53
52651;BME280;38537;47.226;39.702;2023-03-14T02:56:41;101526.13;;;5.15;45.75
52651;BME280;38537;47.226;39.702;2023-03-14T02:59:11;101522.16;;;5.11;45.68
52651;BME280;38537;47.226;39.702;2023-03-14T03:01:47;101526.94;;;5.28;45.73
52651;BME280;38537;47.226;39.702;2023-03-14T03:04:14;101518.63;;;5.28;45.79
52651;BME280;38537;47.226;39.702;2023-03-14T03:06:45;101521.75;;;5.31;45.58
52651;BME280;38537;47.226;39.702;2023-03-14T03:09:13;101509.69;;;4.97;46.18
52651;BME280;38537;47.226;39.702;2023-03-14T03:11:40;101545.88;;;5.19;46.49
52651;BME280;38537;47.226;39.702;2023-03-14T03:14:11;101527.22;;;5.03;45.80
52651;BME280;38537;47.226;39.702;2023-03-14T03:16:39;101537.09;;;5.10;46.12
52651;BME280;38537;47.226;39.702;2023-03-14T03:19:06;101505.50;;;5.23;46.38
52651;BME280;38537;47.226;39.702;2023-03-14T03:21:33;101538.47;;;5.36;46.09
52651;BME280;38537;47.226;39.702;2023-03-14T03:24:01;101508.56;;;5.10;45.50
52651;BME280;38537;47.226;39.702;2023-03-14T03:26:34;101509.88;;;5.19;46.00
52651;BME280;38537;47.226;39.702;2023-03-14T03:29:03;101535.16;;;5.11;46.30
52651;BME280;38537;47.226;39.702;2023-03-14T03:31:31;101515.19;;;5.09;46.10
52651;BME280;38537;47.226;39.702;2023-03-14T03:33:58;101515.47;;;4.96;46.15
52651;BME280;38537;47.226;39.702;2023-03-14T03:36:27;101511.09;;;5.00;46.37
52651;BME280;38537;47.226;39.702;2023-03-14T03:38:54;101508.44;;;5.05;46.51
52651;BME280;38537;47.226;39.702;2023-03-14T03:41:21;101519.81;;;5.20;46.36
52651;BME280;38537;47.226;39.702;2023-03-14T03:43:49;101495.94;;;5.02;46.45
52651;BME280;38537;47.226;39.702;2023-03-14T03:46:17;101520.34;;;5.05;46.43
52651;BME280;38537;47.226;39.702;2023-03-14T03:48:44;101510.13;;;5.06;45.89
52651;BME280;38537;47.226;39.702;2023-03-14T03:51:15;101536.81;;;5.24;46.52
52651;BME280;38537;47.226;39.702;2023-03-14T03:53:43;101511.44;;;5.15;46.43
52651;BME280;38537;47.226;39.702;2023-03-14T03:56:14;101497.66;;;4.92;46.47
52651;BME280;38537;47.226;39.702;2023-03-14T03:58:42;101533.06;;;5.30;46.45
52651;BME280;38537;47.226;39.702;2023-03-14T04:01:10;101538.03;;;5.16;46.24
52651;BME280;38537;47.226;39.702;2023-03-14T04:03:38;101527.56;;;5.18;46.97
52651;BME280;38537;47.226;39.702;2023-03-14T04:06:09;101537.81;;;5.06;46.82
52651;BME280;38537;47.226;39.702;2023-03-14T04:08:40;101527.84;;;4.93;47.15
52651;BME280;38537;47.226;39.702;2023-03-14T04:11:11;101516.88;;;4.98;47.10
52651;BME280;38537;47.226;39.702;2023-03-14T04:13:51;101525.84;;;5.29;47.09
52651;BME280;38537;47.226;39.702;2023-03-14T04:16:21;101545.50;;;5.15;46.51
52651;BME280;38537;47.226;39.702;2023-03-14T04:18:52;101533.09;;;5.06;47.25
52651;BME280;38537;47.226;39.702;2023-03-14T04:21:21;101530.19;;;5.25;46.97
52651;BME280;38537;47.226;39.702;2023-03-14T04:23:54;101531.75;;;5.21;46.89
52651;BME280;38537;47.226;39.702;2023-03-14T04:26:22;101514.34;;;5.08;47.45
52651;BME280;38537;47.226;39.702;2023-03-14T04:28:49;101536.47;;;5.08;46.95
52651;BME280;38537;47.226;39.702;2023-03-14T04:31:20;101539.25;;;5.08;47.37
52651;BME280;38537;47.226;39.702;2023-03-14T04:33:49;101538.28;;;5.03;47.12
52651;BME280;38537;47.226;39.702;2023-03-14T04:36:23;101542.88;;;4.97;48.10
52651;BME280;38537;47.226;39.702;2023-03-14T04:38:50;101533.41;;;4.70;47.75
52651;BME280;38537;47.226;39.702;2023-03-14T04:41:19;101547.56;;;4.85;48.04
52651;BME280;38537;47.226;39.702;2023-03-14T04:43:47;101535.91;;;4.95;48.35
52651;BME280;38537;47.226;39.702;2023-03-14T04:46:14;101548.66;;;4.96;47.52
52651;BME280;38537;47.226;39.702;2023-03-14T04:48:42;101521.94;;;4.90;47.96
52651;BME280;38537;47.226;39.702;2023-03-14T04:51:11;101534.25;;;4.70;47.66
52651;BME280;38537;47.226;39.702;2023-03-14T04:53:38;101538.44;;;4.73;47.73
52651;BME280;38537;47.226;39.702;2023-03-14T04:56:09;101543.59;;;4.93;48.42
52651;BME280;38537;47.226;39.702;2023-03-14T04:58:39;101476.38;;;4.69;47.79
52651;BME280;38537;47.226;39.702;2023-03-14T05:01:07;101474.06;;;4.77;47.30
52651;BME280;38537;47.226;39.702;2023-03-14T05:03:35;101526.09;;;5.27;47.36
52651;BME280;38537;47.226;39.702;2023-03-14T05:06:13;101424.84;;;4.91;46.67
52651;BME280;38537;47.226;39.702;2023-03-14T05:09:09;101425.88;;;5.13;46.86
52651;BME280;38537;47.226;39.702;2023-03-14T05:11:55;101467.50;;;5.47;45.89
52651;BME280;38537;47.226;39.702;2023-03-14T05:14:53;101512.84;;;5.86;45.80
52651;BME280;38537;47.226;39.702;2023-03-14T05:17:39;101477.13;;;6.01;46.64
52651;BME280;38537;47.226;39.702;2023-03-14T05:20:25;101517.72;;;6.41;45.80
52651;BME280;38537;47.226;39.702;2023-03-14T05:23:12;101526.00;;;6.74;45.53
52651;BME280;38537;47.226;39.702;2023-03-14T05:26:14;101534.44;;;6.63;44.98
52651;BME280;38537;47.226;39.702;2023-03-14T05:28:59;101566.97;;;6.84;45.98
52651;BME280;38537;47.226;39.702;2023-03-14T05:31:42;101465.59;;;6.43;45.68
52651;BME280;38537;47.226;39.702;2023-03-14T05:34:30;101469.09;;;6.55;45.30
52651;BME280;38537;47.226;39.702;2023-03-14T05:37:24;101447.50;;;6.57;44.70
52651;BME280;38537;47.226;39.702;2023-03-14T05:40:10;101549.88;;;7.31;45.51
52651;BME280;38537;47.226;39.702;2023-03-14T05:42:57;101569.34;;;7.52;45.25
52651;BME280;38537;47.226;39.702;2023-03-14T05:45:59;101552.25;;;7.66;44.41
52651;BME280;38537;47.226;39.702;2023-03-14T05:48:53;101572.00;;;7.91;44.46
52651;BME280;38537;47.226;39.702;2023-03-14T05:51:23;101560.72;;;8.03;44.49
52651;BME280;38537;47.226;39.702;2023-03-14T05:53:50;101535.13;;;8.01;43.30
52651;BME280;38537;47.226;39.702;2023-03-14T05:56:43;101579.41;;;8.07;43.59
52651;BME280;38537;47.226;39.702;2023-03-14T05:59:24;101550.53;;;7.86;43.46
52651;BME280;38537;47.226;39.702;2023-03-14T06:02:15;101592.09;;;8.25;44.38
52651;BME280;38537;47.226;39.702;2023-03-14T06:05:02;101570.25;;;8.34;43.41
52651;BME280;38537;47.226;39.702;2023-03-14T06:07:30;101573.47;;;8.25;43.32
52651;BME280;38537;47.226;39.702;2023-03-14T06:09:57;101573.53;;;8.04;43.11
52651;BME280;38537;47.226;39.702;2023-03-14T06:12:25;101531.09;;;7.65;43.36
52651;BME280;38537;47.226;39.702;2023-03-14T06:14:53;101560.50;;;7.82;43.49
52651;BME280;38537;47.226;39.702;2023-03-14T06:17:21;101541.16;;;7.93;44.24
52651;BME280;38537;47.226;39.702;2023-03-14T06:19:54;101546.81;;;8.30;43.73
52651;BME280;38537;47.226;39.702;2023-03-14T06:22:22;101569.53;;;8.48;43.64
52651;BME280;38537;47.226;39.702;2023-03-14T06:24:50;101571.09;;;8.66;43.20
52651;BME280;38537;47.226;39.702;2023-03-14T06:27:18;101576.78;;;8.81;43.46
52651;BME280;38537;47.226;39.702;2023-03-14T06:29:47;101544.06;;;8.67;42.99
52651;BME280;38537;47.226;39.702;2023-03-14T06:32:14;101528.22;;;8.67;43.26
52651;BME280;38537;47.226;39.702;2023-03-14T06:34:41;101555.66;;;8.85;42.50
52651;BME280;38537;47.226;39.702;2023-03-14T06:37:09;101564.47;;;8.72;42.32
52651;BME280;38537;47.226;39.702;2023-03-14T06:39:36;101553.66;;;8.44;42.89
52651;BME280;38537;47.226;39.702;2023-03-14T06:42:12;101556.63;;;8.69;43.94
52651;BME280;38537;47.226;39.702;2023-03-14T06:44:41;101543.28;;;9.08;43.81
52651;BME280;38537;47.226;39.702;2023-03-14T06:47:08;101560.94;;;9.34;43.14
52651;BME280;38537;47.226;39.702;2023-03-14T06:49:39;101537.81;;;9.34;42.96
52651;BME280;38537;47.226;39.702;2023-03-14T06:52:07;101540.97;;;9.47;42.81
52651;BME280;38537;47.226;39.702;2023-03-14T06:54:34;101554.97;;;9.68;42.89
52651;BME280;38537;47.226;39.702;2023-03-14T06:57:02;101499.91;;;9.27;41.82
52651;BME280;38537;47.226;39.702;2023-03-14T06:59:30;101543.13;;;9.35;41.61
52651;BME280;38537;47.226;39.702;2023-03-14T07:01:58;101541.94;;;9.21;42.21
52651;BME280;38537;47.226;39.702;2023-03-14T07:04:25;101556.56;;;9.43;42.71
52651;BME280;38537;47.226;39.702;2023-03-14T07:06:53;101531.41;;;9.28;41.96
52651;BME280;38537;47.226;39.702;2023-03-14T07:09:20;101528.34;;;9.35;41.96
52651;BME280;38537;47.226;39.702;2023-03-14T07:11:55;101537.38;;;9.52;41.99
52651;BME280;38537;47.226;39.702;2023-03-14T07:14:22;101557.22;;;9.66;41.92
52651;BME280;38537;47.226;39.702;2023-03-14T07:16:49;101532.69;;;9.73;42.32
52651;BME280;38537;47.226;39.702;2023-03-14T07:19:17;101562.00;;;9.80;40.81
52651;BME280;38537;47.226;39.702;2023-03-14T07:21:45;101539.97;;;9.84;41.46
52651;BME280;38537;47.226;39.702;2023-03-14T07:24:14;101558.44;;;10.05;41.88
52651;BME280;38537;47.226;39.702;2023-03-14T07:26:42;101534.44;;;10.04;41.07
52651;BME280;38537;47.226;39.702;2023-03-14T07:29:10;101507.38;;;9.94;41.08
52651;BME280;38537;47.226;39.702;2023-03-14T07:31:39;101510.44;;;10.08;41.36
52651;BME280;38537;47.226;39.702;2023-03-14T07:34:07;101504.63;;;10.25;41.31
52651;BME280;38537;47.226;39.702;2023-03-14T07:36:38;101515.78;;;10.40;41.12
52651;BME280;38537;47.226;39.702;2023-03-14T07:39:05;101543.44;;;10.47;40.00
52651;BME280;38537;47.226;39.702;2023-03-14T07:41:47;101541.75;;;10.20;39.56
52651;BME280;38537;47.226;39.702;2023-03-14T07:44:36;101512.38;;;9.87;39.93
52651;BME280;38537;47.226;39.702;2023-03-14T07:47:03;101510.69;;;9.86;40.56
52651;BME280;38537;47.226;39.702;2023-03-14T07:49:30;101533.31;;;9.95;40.26
52651;BME280;38537;47.226;39.702;2023-03-14T07:51:57;101494.25;;;10.05;41.31
52651;BME280;38537;47.226;39.702;2023-03-14T07:54:26;101518.31;;;10.37;40.61
52651;BME280;38537;47.226;39.702;2023-03-14T07:56:53;101513.25;;;10.08;39.99
52651;BME280;38537;47.226;39.702;2023-03-14T07:59:21;101509.34;;;10.14;40.88
52651;BME280;38537;47.226;39.702;2023-03-14T08:01:48;101501.56;;;10.21;40.88
52651;BME280;38537;47.226;39.702;2023-03-14T08:04:15;101506.03;;;10.38;40.92
52651;BME280;38537;47.226;39.702;2023-03-14T08:06:42;101509.97;;;10.37;40.25
52651;BME280;38537;47.226;39.702;2023-03-14T08:09:10;101518.88;;;10.49;40.83
52651;BME280;38537;47.226;39.702;2023-03-14T08:11:37;101483.41;;;10.59;41.04
52651;BME280;38537;47.226;39.702;2023-03-14T08:14:05;101496.97;;;11.07;41.63
52651;BME280;38537;47.226;39.702;2023-03-14T08:16:32;101497.25;;;11.20;40.86
52651;BME280;38537;47.226;39.702;2023-03-14T08:18:59;101444.44;;;11.09;40.70
52651;BME280;38537;47.226;39.702;2023-03-14T08:21:27;101481.78;;;11.38;40.13
52651;BME280;38537;47.226;39.702;2023-03-14T08:23:54;101471.31;;;11.64;40.55
52651;BME280;38537;47.226;39.702;2023-03-14T08:26:21;101463.53;;;12.00;40.44
52651;BME280;38537;47.226;39.702;2023-03-14T08:28:49;101448.56;;;11.81;38.66
52651;BME280;38537;47.226;39.702;2023-03-14T08:31:16;101471.34;;;12.08;39.68
52651;BME280;38537;47.226;39.702;2023-03-14T08:33:46;101450.53;;;11.75;38.39
52651;BME280;38537;47.226;39.702;2023-03-14T08:36:14;101452.97;;;11.43;38.01
52651;BME280;38537;47.226;39.702;2023-03-14T08:38:42;101450.94;;;11.53;38.65
52651;BME280;38537;47.226;39.702;2023-03-14T08:41:10;101440.75;;;11.78;39.13
52651;BME280;38537;47.226;39.702;2023-03-14T08:43:37;101442.41;;;11.84;38.32
52651;BME280;38537;47.226;39.702;2023-03-14T08:46:05;101447.63;;;11.95;38.05
52651;BME280;38537;47.226;39.702;2023-03-14T08:48:34;101420.47;;;11.96;39.19
52651;BME280;38537;47.226;39.702;2023-03-14T08:51:12;101453.31;;;12.19;37.58
52651;BME280;38537;47.226;39.702;2023-03-14T08:53:41;101439.53;;;12.28;38.18
52651;BME280;38537;47.226;39.702;2023-03-14T08:56:09;101421.09;;;12.22;38.38
52651;BME280;38537;47.226;39.702;2023-03-14T08:58:37;101450.03;;;12.41;37.63
52651;BME280;38537;47.226;39.702;2023-03-14T09:01:06;101438.28;;;12.39;37.54
52651;BME280;38537;47.226;39.702;2023-03-14T09:03:37;101432.31;;;12.51;36.83
52651;BME280;38537;47.226;39.702;2023-03-14T09:06:07;101431.22;;;12.47;38.11
52651;BME280;38537;47.226;39.702;2023-03-14T09:08:35;101412.03;;;12.59;38.38
52651;BME280;38537;47.226;39.702;2023-03-14T09:11:09;101406.00;;;12.76;38.19
52651;BME280;38537;47.226;39.702;2023-03-14T09:13:36;101405.38;;;12.79;37.53
52651;BME280;38537;47.226;39.702;2023-03-14T09:16:04;101393.41;;;12.73;37.34
52651;BME280;38537;47.226;39.702;2023-03-14T09:18:32;101379.16;;;12.69;37.33
52651;BME280;38537;47.226;39.702;2023-03-14T09:20:59;101375.22;;;12.70;36.40
52651;BME280;38537;47.226;39.702;2023-03-14T09:23:27;101384.63;;;12.80;35.98
52651;BME280;38537;47.226;39.702;2023-03-14T09:25:58;101381.53;;;12.81;35.67
52651;BME280;38537;47.226;39.702;2023-03-14T09:28:27;101384.28;;;12.86;37.36
52651;BME280;38537;47.226;39.702;2023-03-14T09:30:54;101390.22;;;12.80;36.59
52651;BME280;38537;47.226;39.702;2023-03-14T09:33:22;101373.19;;;12.52;36.86
52651;BME280;38537;47.226;39.702;2023-03-14T09:35:49;101386.28;;;12.57;36.86
52651;BME280;38537;47.226;39.702;2023-03-14T09:38:17;101363.41;;;12.50;36.69
52651;BME280;38537;47.226;39.702;2023-03-14T09:40:44;101386.44;;;12.70;37.39
52651;BME280;38537;47.226;39.702;2023-03-14T09:43:13;101379.75;;;12.90;38.02
52651;BME280;38537;47.226;39.702;2023-03-14T09:45:42;101387.19;;;13.24;38.18
52651;BME280;38537;47.226;39.702;2023-03-14T09:48:20;101354.44;;;13.19;36.29
52651;BME280;38537;47.226;39.702;2023-03-14T09:50:50;101375.16;;;13.42;36.93
52651;BME280;38537;47.226;39.702;2023-03-14T09:53:28;101359.66;;;13.26;35.89
52651;BME280;38537;47.226;39.702;2023-03-14T09:56:00;101359.91;;;13.05;35.76
52651;BME280;38537;47.226;39.702;2023-03-14T09:58:29;101376.75;;;13.05;37.14
52651;BME280;38537;47.226;39.702;2023-03-14T10:00:57;101359.72;;;13.21;36.94
52651;BME280;38537;47.226;39.702;2023-03-14T10:03:29;101368.78;;;13.18;35.71
52651;BME280;38537;47.226;39.702;2023-03-14T10:05:59;101355.53;;;13.42;36.74
52651;BME280;38537;47.226;39.702;2023-03-14T10:08:27;101323.63;;;13.14;36.02
52651;BME280;38537;47.226;39.702;2023-03-14T10:10:55;101368.78;;;13.36;36.25
52651;BME280;38537;47.226;39.702;2023-03-14T10:13:25;101365.97;;;13.55;36.55
52651;BME280;38537;47.226;39.702;2023-03-14T10:15:59;101350.41;;;13.44;36.63
52651;BME280;38537;47.226;39.702;2023-03-14T10:18:31;101317.28;;;13.46;36.22
52651;BME280;38537;47.226;39.702;2023-03-14T10:21:16;101343.28;;;13.70;36.02
52651;BME280;38537;47.226;39.702;2023-03-14T10:23:45;101334.41;;;13.45;35.76
52651;BME280;38537;47.226;39.702;2023-03-14T10:26:34;101326.31;;;13.43;36.32
52651;BME280;38537;47.226;39.702;2023-03-14T10:29:08;101349.94;;;13.75;37.03
52651;BME280;38537;47.226;39.702;2023-03-14T10:31:47;101340.50;;;14.03;36.98
52651;BME280;38537;47.226;39.702;2023-03-14T10:34:26;101331.78;;;14.18;36.59
52651;BME280;38537;47.226;39.702;2023-03-14T10:36:58;101326.34;;;14.08;36.35
52651;BME280;38537;47.226;39.702;2023-03-14T10:39:45;101318.88;;;14.17;36.14
52651;BME280;38537;47.226;39.702;2023-03-14T10:44:44;101336.25;;;14.19;34.35
52651;BME280;38537;47.226;39.702;2023-03-14T10:47:17;101309.94;;;14.15;35.35
52651;BME280;38537;47.226;39.702;2023-03-14T10:49:46;101301.94;;;13.76;34.80
52651;BME280;38537;47.226;39.702;2023-03-14T10:54:49;101300.44;;;13.97;36.17
52651;BME280;38537;47.226;39.702;2023-03-14T10:57:21;101298.38;;;13.70;35.47
52651;BME280;38537;47.226;39.702;2023-03-14T10:59:48;101281.25;;;13.53;35.14
52651;BME280;38537;47.226;39.702;2023-03-14T11:02:28;101299.75;;;13.87;35.46
52651;BME280;38537;47.226;39.702;2023-03-14T11:07:43;101273.75;;;13.49;36.12
52651;BME280;38537;47.226;39.702;2023-03-14T11:10:13;101272.50;;;13.73;35.54
52651;BME280;38537;47.226;39.702;2023-03-14T11:13:21;101275.22;;;14.25;36.23
52651;BME280;38537;47.226;39.702;2023-03-14T11:26:41;101246.28;;;14.24;35.23
52651;BME280;38537;47.226;39.702;2023-03-14T11:32:02;101226.44;;;13.61;34.74
52651;BME280;38537;47.226;39.702;2023-03-14T11:34:54;101243.03;;;13.57;34.62
52651;BME280;38537;47.226;39.702;2023-03-14T11:42:26;101232.03;;;13.61;36.74
52651;BME280;38537;47.226;39.702;2023-03-14T11:44:55;101238.94;;;13.82;37.12
52651;BME280;38537;47.226;39.702;2023-03-14T11:47:32;101193.59;;;13.61;35.97
52651;BME280;38537;47.226;39.702;2023-03-14T11:50:14;101226.91;;;14.09;36.60
52651;BME280;38537;47.226;39.702;2023-03-14T11:55:33;101208.69;;;14.34;35.52
52651;BME280;38537;47.226;39.702;2023-03-14T11:58:12;101206.34;;;14.27;36.04
52651;BME280;38537;47.226;39.702;2023-03-14T12:00:43;101219.84;;;14.25;35.22
52651;BME280;38537;47.226;39.702;2023-03-14T12:03:17;101209.84;;;13.92;34.90
52651;BME280;38537;47.226;39.702;2023-03-14T12:08:39;101212.94;;;13.77;35.49
52651;BME280;38537;47.226;39.702;2023-03-14T12:11:35;101214.53;;;14.10;36.25
52651;BME280;38537;47.226;39.702;2023-03-14T12:14:03;101210.25;;;14.40;36.70
52651;BME280;38537;47.226;39.702;2023-03-14T12:16:46;101177.16;;;14.37;35.54
52651;BME280;38537;47.226;39.702;2023-03-14T12:24:45;101204.25;;;14.96;35.22
52651;BME280;38537;47.226;39.702;2023-03-14T12:27:42;101192.47;;;14.94;34.72
52651;BME280;38537;47.226;39.702;2023-03-14T12:30:26;101194.19;;;14.82;34.00
52651;BME280;38537;47.226;39.702;2023-03-14T12:35:41;101187.31;;;14.74;35.42
52651;BME280;38537;47.226;39.702;2023-03-14T12:41:51;101183.81;;;15.04;35.21
52651;BME280;38537;47.226;39.702;2023-03-14T12:49:49;101186.81;;;15.08;33.71
52651;BME280;38537;47.226;39.702;2023-03-14T12:52:47;101153.50;;;15.01;33.61
52651;BME280;38537;47.226;39.702;2023-03-14T12:55:33;101162.38;;;14.95;34.04
52651;BME280;38537;47.226;39.702;2023-03-14T12:58:12;101167.97;;;15.31;34.32
52651;BME280;38537;47.226;39.702;2023-03-14T13:00:44;101155.28;;;15.42;35.12
52651;BME280;38537;47.226;39.702;2023-03-14T13:03:18;101168.25;;;15.74;35.08
52651;BME280;38537;47.226;39.702;2023-03-14T13:05:58;101145.94;;;15.55;34.11
52651;BME280;38537;47.226;39.702;2023-03-14T13:08:55;101157.41;;;15.36;34.30
52651;BME280;38537;47.226;39.702;2023-03-14T13:11:24;101128.81;;;14.98;34.00
52651;BME280;38537;47.226;39.702;2023-03-14T13:13:56;101150.25;;;15.08;34.35
52651;BME280;38537;47.226;39.702;2023-03-14T13:16:24;101135.59;;;14.97;34.27
52651;BME280;38537;47.226;39.702;2023-03-14T13:19:03;101160.06;;;14.97;34.62
52651;BME280;38537;47.226;39.702;2023-03-14T13:21:35;101155.47;;;14.79;34.79
52651;BME280;38537;47.226;39.702;2023-03-14T13:24:20;101134.22;;;14.50;34.38
52651;BME280;38537;47.226;39.702;2023-03-14T13:26:47;101139.53;;;14.74;35.63
52651;BME280;38537;47.226;39.702;2023-03-14T13:29:21;101123.56;;;14.61;34.23
52651;BME280;38537;47.226;39.702;2023-03-14T13:31:55;101147.75;;;14.84;34.94
52651;BME280;38537;47.226;39.702;2023-03-14T13:34:29;101130.97;;;14.79;34.27
52651;BME280;38537;47.226;39.702;2023-03-14T13:36:57;101142.06;;;14.98;35.48
52651;BME280;38537;47.226;39.702;2023-03-14T13:39:27;101151.28;;;15.12;35.50
52651;BME280;38537;47.226;39.702;2023-03-14T13:42:00;101127.78;;;15.17;34.52
52651;BME280;38537;47.226;39.702;2023-03-14T13:44:36;101133.38;;;15.30;34.99
52651;BME280;38537;47.226;39.702;2023-03-14T13:47:25;101121.81;;;15.09;33.73
52651;BME280;38537;47.226;39.702;2023-03-14T13:49:53;101101.47;;;14.90;34.63
52651;BME280;38537;47.226;39.702;2023-03-14T13:52:31;101120.69;;;14.97;34.25
52651;BME280;38537;47.226;39.702;2023-03-14T13:55:00;101102.31;;;14.55;33.98
52651;BME280;38537;47.226;39.702;2023-03-14T13:57:47;101109.91;;;14.68;34.71
52651;BME280;38537;47.226;39.702;2023-03-14T14:00:20;101127.53;;;14.82;34.86
52651;BME280;38537;47.226;39.702;2023-03-14T14:02:48;101121.16;;;15.13;35.15
52651;BME280;38537;47.226;39.702;2023-03-14T14:05:15;101121.41;;;15.02;34.89
52651;BME280;38537;47.226;39.702;2023-03-14T14:07:43;101134.38;;;15.34;34.97
52651;BME280;38537;47.226;39.702;2023-03-14T14:10:12;101107.94;;;15.13;34.39
52651;BME280;38537;47.226;39.702;2023-03-14T14:15:11;101121.78;;;14.65;34.51